Latest Weather Observations for Applethorpe

IDN60801

Issued at 6:35 pm EDT Friday 24 October 2014 (issued every 30 minutes, with the page automatically refreshed every 10 minutes)

About weather observations | Map of weather stations | Latest weather observations for NSW | Other Formats
Station Details ID: 041175 Name: APPLETHORPE Lat: -28.62 Lon: 151.95 Height: 871.6 m
Data from the previous 72 hours. | See also: Recent months at Applethorpe
Date/Time
EDT
Temp
°C
App
Temp
°C
Dew
Point
Rel
Hum
%
Delta-T
°C
Wind Press
QNH
hPa
Press
MSL
hPa
Rain
since 9 am
mm
Dir
 
Spd
km/h
Gust
km/h
Spd
kts
Gust
kts
24/06:30pm 20.8 19.1 11.2 54 5.5 ENE 11 24 6 13 1021.7 1019.1 0.0
24/06:00pm 20.8 18.7 9.9 49 6.1 E 11 24 6 13 1021.7 1019.1 0.0
24/05:47pm 21.5 17.4 10.2 48 6.4 E 22 44 12 24 1021.7 1019.1 0.0
24/05:30pm 26.7 25.8 10.8 37 9.3 NNE 6 13 3 7 1021.0 1018.3 0.0
24/05:00pm 27.1 25.9 8.0 30 10.7 N 4 9 2 5 1020.5 1017.9 0.0
24/04:30pm 27.2 25.7 8.4 30 10.6 N 6 17 3 9 1020.7 1018.1 0.0
24/04:00pm 26.2 24.5 9.8 35 9.4 NNE 9 15 5 8 1020.7 1018.1 0.0
24/03:30pm 26.7 25.1 10.1 35 9.6 NNE 9 17 5 9 1021.1 1018.4 0.0
24/03:00pm 27.7 26.2 8.4 29 10.9 ENE 6 13 3 7 1021.4 1018.8 0.0
24/02:30pm 25.9 24.1 7.9 32 10.0 SE 7 24 4 13 1021.7 1019.1 0.0
24/02:00pm 27.7 25.2 8.4 29 10.9 SSW 11 20 6 11 1022.0 1019.4 0.0
24/01:30pm 26.7 25.6 8.4 31 10.3 SSE 4 7 2 4 1022.6 1020.0 0.0
24/01:00pm 25.3 23.7 8.0 33 9.6 SW 6 13 3 7 1023.0 1020.4 0.0
24/12:30pm 25.8 24.9 9.2 35 9.4 SW 4 9 2 5 1023.4 1020.8 0.0
24/12:00pm 24.7 22.7 8.8 36 8.9 E 9 15 5 8 1023.7 1021.1 0.0
24/11:30am 24.1 22.7 9.4 39 8.3 SW 7 13 4 7 1023.9 1021.3 0.0
24/11:00am 23.0 21.2 9.5 42 7.6 WNW 9 17 5 9 1024.3 1021.8 0.0
24/10:30am 21.7 19.7 10.0 47 6.6 SW 11 22 6 12 1024.8 1022.2 0.0
24/10:00am 20.9 20.7 11.9 56 5.2 SSW 4 9 2 5 1024.9 1022.3 3.4
24/09:30am 19.5 19.5 12.4 63 4.1 S 4 7 2 4 1024.8 1022.2 3.2
24/09:00am 18.1 18.2 12.6 70 3.2 WSW 4 6 2 3 1024.7 1022.1 3.2
24/08:30am 16.2 16.9 13.5 84 1.6 W 2 6 1 3 1024.7 1022.1 3.2
24/08:00am 14.1 14.9 12.7 91 0.8 CALM 0 0 0 0 1024.3 1021.8 3.2
24/07:30am 12.1 12.6 11.6 97 0.3 CALM 0 0 0 0 1024.2 1021.6 3.2
24/07:00am 10.4 10.5 10.2 99 0.1 CALM 0 2 0 1 1024.0 1021.4 3.2
24/06:30am 9.6 9.0 9.0 96 0.3 N 2 6 1 3 1023.4 1020.8 3.2
24/06:00am 8.8 7.7 8.6 99 0.1 NE 4 4 2 2 1022.7 1020.1 3.2
24/05:30am 9.4 8.5 9.2 99 0.1 NNE 4 4 2 2 1022.6 1020.0 3.2
24/05:00am 9.1 8.1 8.7 97 0.2 NE 4 4 2 2 1022.3 1019.7 3.2
24/04:30am 9.2 8.2 9.0 99 0.1 NNE 4 4 2 2 1022.3 1019.7 3.2
24/04:00am 9.4 8.9 9.2 99 0.1 N 2 4 1 2 1022.0 1019.4 3.2
24/03:30am 9.5 9.0 9.3 99 0.1 E 2 4 1 2 1022.0 1019.4 3.2
24/03:00am 9.6 9.5 9.4 99 0.1 CALM 0 0 0 0 1021.8 1019.2 3.2
24/02:30am 9.6 9.4 9.2 97 0.2 CALM 0 4 0 2 1022.3 1019.7 3.2
24/02:00am 9.8 9.7 9.6 99 0.1 CALM 0 0 0 0 1022.5 1019.9 3.2
24/01:30am 10.2 10.3 10.2 100 0.0 CALM 0 0 0 0 1022.9 1020.3 3.2
24/01:00am 11.0 11.2 10.6 97 0.2 WSW 0 0 0 0 1023.1 1020.5 3.2
24/12:30am 11.0 10.9 10.8 99 0.1 WSW 2 2 1 1 1023.5 1020.9 3.2
24/12:00am 11.9 12.4 11.5 97 0.2 CALM 0 2 0 1 1023.4 1020.8 3.2
 
Date/Time
EDT
Temp
°C
App
Temp
°C
Dew
Point
Rel
Hum
%
Delta-T
°C
Wind Press
QNH
hPa
Press
MSL
hPa
Rain
since 9 am
mm
Dir
 
Spd
km/h
Gust
km/h
Spd
kts
Gust
kts
23/11:30pm 12.3 12.9 11.9 97 0.2 CALM 0 2 0 1 1023.6 1021.0 3.2
23/11:00pm 12.8 13.1 12.1 95 0.4 NE 2 4 1 2 1023.6 1021.0 3.2
23/10:30pm 13.4 13.5 12.7 95 0.4 ENE 4 7 2 4 1023.6 1021.0 3.2
23/10:00pm 13.9 14.1 13.2 96 0.4 ENE 4 6 2 3 1023.2 1020.6 3.2
23/09:30pm 14.3 14.2 13.3 94 0.6 N 6 7 3 4 1023.4 1020.8 3.2
23/09:00pm 14.2 14.9 13.5 96 0.4 SW 2 7 1 4 1024.1 1021.5 3.2
23/08:30pm 14.6 15.3 13.4 92 0.7 S 2 9 1 5 1024.1 1021.5 2.8
23/08:00pm 15.8 14.5 12.5 81 1.9 E 11 24 6 13 1023.5 1020.9 0.0
23/07:30pm 17.3 16.0 11.1 67 3.5 SE 9 24 5 13 1023.5 1020.9 0.0
23/07:00pm 19.4 18.0 9.4 52 5.5 E 7 15 4 8 1022.0 1019.4 0.0
23/06:30pm 20.6 18.9 8.5 45 6.6 ENE 7 11 4 6 1021.2 1018.5 0.0
23/06:00pm 21.3 19.5 8.0 42 7.2 ESE 7 17 4 9 1020.7 1018.1 0.0
23/05:30pm 20.3 17.6 9.0 48 6.2 SE 13 28 7 15 1021.0 1018.3 0.0
23/05:00pm 20.5 17.4 7.4 42 7.0 SE 13 22 7 12 1020.6 1018.0 0.0
23/04:30pm 21.7 19.0 7.4 39 7.7 SE 11 26 6 14 1020.2 1017.5 0.0
23/04:00pm 25.5 22.7 7.0 30 10.1 WSW 11 24 6 13 1019.5 1016.9 0.0
23/03:30pm 25.0 22.5 6.5 30 10.0 SW 9 19 5 10 1019.4 1016.8 0.0
23/03:00pm 25.2 22.3 6.5 30 10.1 SW 11 19 6 10 1019.5 1016.9 0.0
23/02:30pm 25.9 22.7 5.1 26 11.0 WSW 11 22 6 12 1020.1 1017.4 0.0
23/02:00pm 25.2 23.1 6.5 30 10.1 SSW 7 24 4 13 1020.7 1018.1 0.0
23/01:30pm 25.2 21.4 5.9 29 10.3 SW 15 26 8 14 1021.3 1018.7 0.0
23/01:00pm 25.2 22.9 7.3 32 9.8 SSW 9 19 5 10 1021.7 1019.1 0.0
23/12:30pm 23.5 21.6 7.5 35 8.7 W 7 15 4 8 1022.4 1019.8 0.0
23/12:00pm 22.7 20.5 7.8 38 8.1 SW 9 20 5 11 1022.8 1020.2 0.0
23/11:30am 22.9 20.7 7.9 38 8.2 SW 9 24 5 13 1023.2 1020.6 0.0
23/11:00am 21.8 18.8 7.5 39 7.7 WSW 13 26 7 14 1023.7 1021.1 0.0
23/10:30am 20.4 16.9 7.2 42 7.0 WSW 15 24 8 13 1024.1 1021.5 0.0
23/10:00am 20.3 17.6 7.3 43 6.9 W 11 20 6 11 1024.2 1021.6 0.0
23/09:30am 18.4 16.7 8.3 51 5.4 WSW 7 15 4 8 1024.3 1021.8 0.0
23/09:00am 16.2 14.7 9.3 63 3.7 SSW 7 11 4 6 1024.2 1021.6 0.0
23/08:30am 13.9 13.2 10.2 78 2.0 SSW 4 6 2 3 1024.2 1021.6 0.0
23/08:00am 11.7 11.9 10.4 92 0.7 CALM 0 4 0 2 1024.1 1021.5 0.0
23/07:30am 9.4 9.2 9.0 97 0.2 CALM 0 0 0 0 1023.9 1021.3 0.0
23/07:00am 6.7 5.7 5.6 93 0.5 CALM 0 0 0 0 1023.6 1021.0 0.0
23/06:30am 5.3 4.2 5.3 100 0.0 CALM 0 0 0 0 1023.4 1020.8 0.0
23/06:00am 5.5 4.4 5.3 99 0.1 CALM 0 0 0 0 1022.9 1020.3 0.0
23/05:30am 6.0 5.0 5.8 99 0.1 CALM 0 0 0 0 1022.6 1020.0 0.0
23/05:00am 6.2 5.2 5.8 97 0.2 CALM 0 0 0 0 1022.5 1019.9 0.0
23/04:30am 6.5 5.6 6.1 97 0.2 CALM 0 0 0 0 1022.5 1019.9 0.0
23/04:00am 6.5 5.6 6.1 97 0.2 CALM 0 0 0 0 1022.7 1020.1 0.0
23/03:30am 6.8 6.0 6.6 99 0.1 CALM 0 0 0 0 1022.9 1020.3 0.0
23/03:00am 7.8 7.2 7.4 97 0.2 CALM 0 0 0 0 1023.1 1020.5 0.0
23/02:30am 7.7 7.0 7.1 96 0.3 CALM 0 0 0 0 1023.6 1021.0 0.0
23/02:00am 8.2 7.3 7.8 97 0.2 N 2 4 1 2 1023.8 1021.2 0.0
23/01:30am 8.8 8.4 8.2 96 0.3 CALM 0 4 0 2 1024.0 1021.4 0.0
23/01:00am 8.5 8.1 8.1 97 0.2 CALM 0 4 0 2 1024.2 1021.6 0.0
23/12:30am 9.6 9.0 8.8 95 0.4 E 2 6 1 3 1024.3 1021.8 0.0
23/12:00am 10.0 9.0 8.8 92 0.6 ENE 4 6 2 3 1024.6 1022.0 0.0
 
Date/Time
EDT
Temp
°C
App
Temp
°C
Dew
Point
Rel
Hum
%
Delta-T
°C
Wind Press
QNH
hPa
Press
MSL
hPa
Rain
since 9 am
mm
Dir
 
Spd
km/h
Gust
km/h
Spd
kts
Gust
kts
22/11:30pm 10.3 8.9 8.9 91 0.7 NE 6 7 3 4 1024.7 1022.1 0.0
22/11:00pm 10.7 9.7 9.0 89 0.9 ENE 4 4 2 2 1024.6 1022.0 0.0
22/10:30pm 11.4 10.8 9.1 86 1.2 E 2 7 1 4 1024.8 1022.2 0.0
22/10:00pm 11.9 10.9 9.0 82 1.5 NE 4 7 2 4 1024.9 1022.3 0.0
22/09:30pm 12.7 11.8 9.1 79 1.9 E 4 9 2 5 1024.8 1022.2 0.0
22/09:00pm 13.5 12.1 8.9 74 2.4 E 6 11 3 6 1024.6 1022.0 0.0
22/08:30pm 13.9 12.4 8.6 70 2.8 ENE 6 9 3 5 1024.6 1022.0 0.0
22/08:00pm 14.7 13.2 8.6 67 3.2 ENE 6 7 3 4 1024.2 1021.6 0.0
22/07:30pm 15.7 14.0 7.4 57 4.3 ENE 6 9 3 5 1024.0 1021.4 0.0
22/07:00pm 16.9 15.3 7.8 55 4.8 E 6 15 3 8 1023.9 1021.3 0.0
22/06:30pm 18.8 16.8 7.2 47 6.1 ENE 7 19 4 10 1023.8 1021.2 0.0
22/06:00pm 20.0 17.6 6.9 42 6.9 E 9 17 5 9 1023.7 1021.1 0.0
22/05:30pm 21.1 19.0 6.5 38 7.7 E 7 13 4 7 1023.5 1020.9 0.0
22/05:00pm 21.5 18.5 6.0 36 8.1 NE 11 22 6 12 1023.4 1020.8 0.0
22/04:30pm 22.0 19.3 5.7 34 8.5 ENE 9 19 5 10 1023.4 1020.8 0.0
22/04:00pm 22.3 19.7 6.2 35 8.5 ENE 9 20 5 11 1023.4 1020.8 0.0
22/03:30pm 22.0 19.9 6.8 37 8.1 E 7 17 4 9 1023.7 1021.1 0.0
22/03:00pm 22.3 20.1 7.7 39 7.9 E 9 17 5 9 1024.1 1021.5 0.0
22/02:30pm 21.7 19.6 8.1 41 7.4 E 9 20 5 11 1024.4 1021.9 0.0
22/02:00pm 21.4 19.7 8.2 42 7.2 E 7 13 4 7 1024.9 1022.3 0.0
22/01:30pm 19.7 18.1 8.0 46 6.3 SE 6 17 3 9 1025.3 1022.8 0.0
22/01:00pm 18.5 16.3 8.0 50 5.6 E 9 19 5 10 1025.9 1023.3 0.0
22/12:30pm 19.3 17.7 8.6 50 5.8 E 7 17 4 9 1026.5 1024.0 0.0
22/12:00pm 17.9 16.2 8.4 53 5.1 ESE 7 19 4 10 1027.1 1024.5 0.0
22/11:30am 16.8 14.7 8.1 56 4.6 E 9 22 5 12 1027.3 1024.7 0.0
22/11:00am 15.7 13.6 8.3 61 3.9 E 9 15 5 8 1027.7 1025.2 0.0
22/10:30am 14.8 12.3 8.3 65 3.4 E 11 20 6 11 1027.8 1025.3 0.0
22/10:00am 14.4 12.7 8.5 67 3.1 E 7 15 4 8 1027.9 1025.4 0.0
22/09:30am 13.9 11.4 8.3 69 2.9 E 11 20 6 11 1027.9 1025.4 0.0
22/09:00am 13.7 11.3 8.5 71 2.7 E 11 22 6 12 1027.6 1025.1 0.0
22/08:30am 12.2 10.2 8.5 78 1.9 ESE 9 20 5 11 1027.4 1024.9 0.0
22/08:00am 11.3 9.1 9.2 87 1.1 ESE 11 19 6 10 1027.2 1024.6 0.0
22/07:30am 11.1 9.1 8.8 86 1.2 E 9 19 5 10 1026.9 1024.4 0.0
22/07:00am 10.6 8.6 8.7 88 1.0 ESE 9 20 5 11 1026.7 1024.2 0.0
22/06:30am 10.2 8.5 8.4 89 0.9 E 7 17 4 9 1026.5 1024.0 0.0
22/06:00am 10.3 7.8 8.3 87 1.0 E 11 19 6 10 1026.3 1023.7 0.0
22/05:30am 9.9 8.4 8.3 90 0.8 E 6 13 3 7 1026.2 1023.6 0.0
22/05:00am 10.3 8.2 8.1 86 1.1 E 9 20 5 11 1026.3 1023.7 0.0
22/04:30am 10.4 8.3 8.2 86 1.1 ESE 9 19 5 10 1026.4 1023.9 0.0
22/04:00am 10.5 8.4 8.1 85 1.2 ESE 9 17 5 9 1026.5 1024.0 0.0
22/03:30am 10.7 8.5 7.9 83 1.4 E 9 22 5 12 1026.6 1024.1 0.0
22/03:00am 10.7 8.6 8.1 84 1.3 E 9 20 5 11 1026.8 1024.3 0.0
22/02:30am 10.7 8.6 8.1 84 1.3 ESE 9 20 5 11 1027.3 1024.7 0.0
22/02:00am 10.4 8.6 8.0 85 1.2 E 7 17 4 9 1027.7 1025.2 0.0
22/01:30am 10.7 8.5 7.7 82 1.5 E 9 17 5 9 1028.0 1025.5 0.0
22/01:00am 11.0 8.4 7.6 79 1.7 E 11 24 6 13 1028.6 1026.1 0.0
22/12:30am 11.2 9.1 8.1 81 1.6 E 9 22 5 12 1029.0 1026.5 0.0
22/12:00am 11.3 9.1 8.0 80 1.7 ESE 9 19 5 10 1029.1 1026.6 0.0
 
Date/Time
EDT
Temp
°C
App
Temp
°C
Dew
Point
Rel
Hum
%
Delta-T
°C
Wind Press
QNH
hPa
Press
MSL
hPa
Rain
since 9 am
mm
Dir
 
Spd
km/h
Gust
km/h
Spd
kts
Gust
kts
21/11:30pm 11.1 8.9 7.7 79 1.7 E 9 17 5 9 1029.4 1027.0 0.0
21/11:00pm 11.7 9.5 8.0 78 1.9 E 9 20 5 11 1029.4 1027.0 0.0
21/10:30pm 12.2 9.8 8.7 79 1.8 E 11 22 6 12 1029.4 1027.0 0.0
21/10:00pm 12.6 10.7 9.0 79 1.9 E 9 19 5 10 1029.3 1026.8 0.0
21/09:30pm 12.8 10.5 9.0 78 2.0 E 11 20 6 11 1029.1 1026.6 0.0
21/09:00pm 13.0 11.2 9.4 79 1.9 E 9 26 5 14 1028.9 1026.4 0.0
21/08:30pm 13.1 11.3 9.3 78 2.0 E 9 19 5 10 1028.6 1026.1 0.0
21/08:00pm 13.8 11.6 9.3 74 2.4 E 11 24 6 13 1028.2 1025.7 0.0

Other Formats:

Comma delimited format used in spreadsheet applications
http://www.bom.gov.au/fwo/IDN60801/IDN60801.94553.axf

JavaScript Object Notation format (JSON) in row-major order
http://www.bom.gov.au/fwo/IDN60801/IDN60801.94553.json